Time;durP1;ratioP1;P1;durP2;ratioP2;P2;SDS_P1;SDS_P2;PMS_P1;PMS_P2;Temp;Humidity;BMP_temperature;BMP_pressure;BME280_temperature;BME280_humidity;BME280_pressure;Samples;Min_cycle;Max_cycle;Signal;HPM_P1;HPM_P2
2021/01/10 00:00:16;;;;;;;32.42;18.05;;;;;;;;;;5090902;28;20688;-75
2021/01/10 00:02:43;;;;;;;32.47;17.35;;;;;;;;;;5080773;28;20183;-74
2021/01/10 00:05:10;;;;;;;32.58;17.13;;;;;;;;;;5085053;28;20187;-76
2021/01/10 00:07:36;;;;;;;32.95;17.45;;;;;;;;;;5072377;28;20187;-73
2021/01/10 00:10:06;;;;;;;30.95;16.48;;;;;;;;;;5084374;28;20876;-75
2021/01/10 00:12:32;;;;;;;35.22;17.40;;;;;;;;;;5091134;28;20541;-75
2021/01/10 00:14:58;;;;;;;34.28;17.98;;;;;;;;;;5076602;28;20195;-79
2021/01/10 00:17:24;;;;;;;29.00;15.52;;;;;;;;;;5076238;28;20186;-75
2021/01/10 00:19:50;;;;;;;32.42;17.10;;;;;;;;;;5077647;28;20246;-77
2021/01/10 00:22:19;;;;;;;33.90;18.20;;;;;;;;;;5078306;28;20565;-78
2021/01/10 00:24:46;;;;;;;34.03;18.83;;;;;;;;;;5081602;28;20233;-76
2021/01/10 00:27:13;;;;;;;31.83;17.58;;;;;;;;;;5078088;28;20172;-75
2021/01/10 00:29:40;;;;;;;34.72;18.40;;;;;;;;;;5085324;28;20184;-75
2021/01/10 00:32:06;;;;;;;33.10;16.25;;;;;;;;;;5090303;28;20226;-73
2021/01/10 00:34:33;;;;;;;32.92;17.10;;;;;;;;;;5071160;28;20191;-74
2021/01/10 00:36:59;;;;;;;29.23;17.35;;;;;;;;;;5077620;28;20317;-76
2021/01/10 00:39:25;;;;;;;32.30;17.77;;;;;;;;;;5070170;28;20227;-76
2021/01/10 00:41:57;;;;;;;28.73;15.68;;;;;;;;;;5075697;28;20220;-75
2021/01/10 00:44:23;;;;;;;31.35;17.13;;;;;;;;;;5081020;28;20188;-75
2021/01/10 00:46:51;;;;;;;26.08;14.52;;;;;;;;;;5083138;28;20179;-74
2021/01/10 00:49:17;;;;;;;28.30;16.95;;;;;;;;;;5083214;28;20569;-76
2021/01/10 00:51:43;;;;;;;27.60;16.27;;;;;;;;;;5068341;28;20761;-75
2021/01/10 00:54:09;;;;;;;38.50;18.63;;;;;;;;;;5075828;28;20192;-73
2021/01/10 00:56:35;;;;;;;29.20;15.90;;;;;;;;;;5069332;28;20206;-75
2021/01/10 00:59:01;;;;;;;25.77;15.55;;;;;;;;;;5074566;28;20215;-76
2021/01/10 01:01:27;;;;;;;29.40;16.13;;;;;;;;;;5069643;28;20254;-75
2021/01/10 01:03:53;;;;;;;28.35;16.52;;;;;;;;;;5072486;28;20325;-76
2021/01/10 01:06:19;;;;;;;28.35;16.88;;;;;;;;;;5079370;28;20203;-74
2021/01/10 01:08:45;;;;;;;25.17;15.60;;;;;;;;;;5091962;28;20652;-75
2021/01/10 01:11:11;;;;;;;24.88;15.07;;;;;;;;;;5083558;28;20377;-75
2021/01/10 01:13:37;;;;;;;26.38;16.63;;;;;;;;;;5081189;28;20975;-76
2021/01/10 01:16:06;;;;;;;25.55;15.85;;;;;;;;;;5069877;28;20184;-74
2021/01/10 01:18:33;;;;;;;24.48;14.40;;;;;;;;;;5081725;28;20199;-75
2021/01/10 01:20:59;;;;;;;24.52;15.55;;;;;;;;;;5069368;28;20203;-75
2021/01/10 01:23:25;;;;;;;28.45;15.40;;;;;;;;;;5077880;28;20277;-74
2021/01/10 01:25:51;;;;;;;23.63;13.40;;;;;;;;;;5069104;28;20179;-76
2021/01/10 01:28:17;;;;;;;26.58;15.50;;;;;;;;;;5080342;28;20904;-74
2021/01/10 01:30:43;;;;;;;23.67;13.70;;;;;;;;;;5083774;28;20277;-76
2021/01/10 01:33:09;;;;;;;24.63;13.85;;;;;;;;;;5076768;28;20286;-74
2021/01/10 01:35:35;;;;;;;27.15;15.32;;;;;;;;;;5081844;28;20246;-75
2021/01/10 01:38:01;;;;;;;25.00;14.80;;;;;;;;;;5092688;28;20236;-76
2021/01/10 01:40:27;;;;;;;24.50;14.50;;;;;;;;;;5091927;28;20252;-74
2021/01/10 01:42:53;;;;;;;26.15;15.55;;;;;;;;;;5080084;28;20267;-74
2021/01/10 01:45:19;;;;;;;22.90;14.07;;;;;;;;;;5072579;28;20181;-75
2021/01/10 01:47:45;;;;;;;27.90;16.95;;;;;;;;;;5080571;28;20184;-75
2021/01/10 01:50:11;;;;;;;29.13;16.67;;;;;;;;;;5072633;28;20211;-76
2021/01/10 01:52:39;;;;;;;26.27;15.80;;;;;;;;;;5072919;28;20279;-74
2021/01/10 01:55:06;;;;;;;28.80;17.40;;;;;;;;;;5072363;28;20537;-75
2021/01/10 01:57:32;;;;;;;29.27;16.73;;;;;;;;;;5072833;28;20184;-74
2021/01/10 01:59:58;;;;;;;27.33;16.00;;;;;;;;;;5072512;28;20204;-74
2021/01/10 02:02:24;;;;;;;27.50;15.93;;;;;;;;;;5071344;28;20249;-75
2021/01/10 02:05:08;;;;;;;28.90;17.05;;;;;;;;;;5079685;28;20189;-74
2021/01/10 02:08:09;;;;;;;27.35;15.43;;;;;;;;;;5081802;28;20196;-75
2021/01/10 02:10:37;;;;;;;28.48;16.67;;;;;;;;;;5099703;28;20332;-74
2021/01/10 02:13:07;;;;;;;29.05;17.02;;;;;;;;;;5079836;28;20283;-76
2021/01/10 02:15:34;;;;;;;30.20;17.35;;;;;;;;;;5076213;28;20173;-74
2021/01/10 02:18:01;;;;;;;32.35;18.27;;;;;;;;;;5093043;28;20186;-75
2021/01/10 02:20:28;;;;;;;29.83;17.20;;;;;;;;;;5096442;28;20204;-74
2021/01/10 02:23:13;;;;;;;30.13;17.73;;;;;;;;;;5093285;28;20553;-74
2021/01/10 02:25:42;;;;;;;26.30;15.63;;;;;;;;;;5075769;28;20176;-72
2021/01/10 02:28:11;;;;;;;28.13;16.95;;;;;;;;;;5079435;28;20175;-75
2021/01/10 02:30:39;;;;;;;30.33;17.25;;;;;;;;;;5090182;28;20786;-75
2021/01/10 02:33:10;;;;;;;30.38;18.02;;;;;;;;;;5083224;28;20187;-73
2021/01/10 02:35:36;;;;;;;26.38;16.25;;;;;;;;;;5095939;28;20175;-73
2021/01/10 02:38:09;;;;;;;28.48;16.50;;;;;;;;;;5096430;28;20186;-75
2021/01/10 02:40:43;;;;;;;29.15;17.40;;;;;;;;;;5093975;28;20199;-74
2021/01/10 02:43:14;;;;;;;31.52;18.33;;;;;;;;;;5085760;28;20182;-75
2021/01/10 02:45:41;;;;;;;31.40;17.88;;;;;;;;;;5095942;28;20516;-74
2021/01/10 02:48:08;;;;;;;32.42;18.90;;;;;;;;;;5096269;28;20175;-74
2021/01/10 02:50:34;;;;;;;32.97;19.55;;;;;;;;;;5096043;28;20223;-75
2021/01/10 02:53:00;;;;;;;31.52;18.08;;;;;;;;;;5096117;28;20211;-75
2021/01/10 02:55:26;;;;;;;32.17;19.55;;;;;;;;;;5092705;28;20640;-73
2021/01/10 02:57:56;;;;;;;33.45;19.15;;;;;;;;;;5085336;28;20249;-76
2021/01/10 03:00:23;;;;;;;35.10;19.73;;;;;;;;;;5075400;28;20203;-75
2021/01/10 03:02:50;;;;;;;30.98;19.13;;;;;;;;;;5075496;28;20173;-75
2021/01/10 03:05:16;;;;;;;34.92;18.80;;;;;;;;;;5074775;28;20226;-77
2021/01/10 03:07:43;;;;;;;38.25;19.48;;;;;;;;;;5075367;28;20187;-75
2021/01/10 03:10:13;;;;;;;32.97;18.52;;;;;;;;;;5094208;28;20203;-76
2021/01/10 03:12:39;;;;;;;33.45;18.40;;;;;;;;;;5080468;28;20236;-75
2021/01/10 03:15:07;;;;;;;32.05;18.00;;;;;;;;;;5075937;28;20203;-76
2021/01/10 03:17:42;;;;;;;30.80;18.20;;;;;;;;;;5092347;28;20175;-74
2021/01/10 03:20:09;;;;;;;31.52;17.80;;;;;;;;;;5081673;28;20202;-76
2021/01/10 03:22:35;;;;;;;30.95;18.20;;;;;;;;;;5094402;28;20278;-74
2021/01/10 03:25:01;;;;;;;33.55;18.15;;;;;;;;;;5075781;28;20202;-77
2021/01/10 03:27:27;;;;;;;32.90;18.40;;;;;;;;;;5088977;28;20171;-76
2021/01/10 03:29:54;;;;;;;30.73;17.20;;;;;;;;;;5087823;28;20196;-76
2021/01/10 03:32:20;;;;;;;30.45;17.98;;;;;;;;;;5094230;28;20207;-75
2021/01/10 03:34:47;;;;;;;28.10;18.08;;;;;;;;;;5086946;28;20529;-76
2021/01/10 03:37:13;;;;;;;31.13;17.75;;;;;;;;;;5077249;28;20223;-75
2021/01/10 03:39:39;;;;;;;32.22;17.92;;;;;;;;;;5094862;28;20265;-76
2021/01/10 03:42:05;;;;;;;30.38;18.00;;;;;;;;;;5094310;28;20656;-77
2021/01/10 03:44:31;;;;;;;31.52;18.65;;;;;;;;;;5094633;28;20167;-74
2021/01/10 03:46:57;;;;;;;30.33;18.20;;;;;;;;;;5094099;28;20293;-75
2021/01/10 03:49:23;;;;;;;29.10;16.80;;;;;;;;;;5087221;28;20518;-76
2021/01/10 03:51:49;;;;;;;28.95;17.45;;;;;;;;;;5086014;28;20211;-74
2021/01/10 03:54:15;;;;;;;29.52;17.92;;;;;;;;;;5074423;28;20505;-76
2021/01/10 03:56:41;;;;;;;29.98;18.50;;;;;;;;;;5081666;28;20306;-75
2021/01/10 03:59:07;;;;;;;26.70;16.55;;;;;;;;;;5090516;28;20266;-75
2021/01/10 04:01:33;;;;;;;26.30;16.88;;;;;;;;;;5092820;28;20199;-74
2021/01/10 04:03:59;;;;;;;26.88;16.27;;;;;;;;;;5077176;28;20172;-75
2021/01/10 04:06:25;;;;;;;27.27;16.85;;;;;;;;;;5077304;28;20191;-77
2021/01/10 04:08:53;;;;;;;29.88;17.48;;;;;;;;;;5098019;28;20169;-76
2021/01/10 04:11:19;;;;;;;27.85;16.88;;;;;;;;;;5088109;28;20234;-75
2021/01/10 04:13:45;;;;;;;30.50;17.35;;;;;;;;;;5075846;28;20188;-76
2021/01/10 04:16:12;;;;;;;29.40;17.92;;;;;;;;;;5084759;28;20687;-78
2021/01/10 04:18:38;;;;;;;28.75;17.27;;;;;;;;;;5094297;28;20606;-75
2021/01/10 04:21:04;;;;;;;29.67;18.23;;;;;;;;;;5081263;28;20608;-75
2021/01/10 04:23:31;;;;;;;29.13;18.25;;;;;;;;;;5077886;28;20171;-74
2021/01/10 04:25:57;;;;;;;29.23;17.30;;;;;;;;;;5085022;28;20179;-75
2021/01/10 04:28:23;;;;;;;30.75;17.77;;;;;;;;;;5078772;28;20179;-76
2021/01/10 04:30:49;;;;;;;33.55;18.67;;;;;;;;;;5090755;28;20198;-77
2021/01/10 04:33:15;;;;;;;33.75;19.23;;;;;;;;;;5080311;28;20183;-76
2021/01/10 04:35:41;;;;;;;34.55;18.05;;;;;;;;;;5077299;28;20216;-76
2021/01/10 04:38:07;;;;;;;31.73;17.85;;;;;;;;;;5073576;28;20183;-76
2021/01/10 04:40:33;;;;;;;34.47;18.67;;;;;;;;;;5074408;28;20214;-75
2021/01/10 04:42:59;;;;;;;37.03;18.80;;;;;;;;;;5073927;28;20263;-77
2021/01/10 04:45:25;;;;;;;33.22;19.25;;;;;;;;;;5073391;28;20207;-75
2021/01/10 04:47:51;;;;;;;33.75;18.33;;;;;;;;;;5085731;28;20534;-77
2021/01/10 04:50:18;;;;;;;33.33;19.35;;;;;;;;;;5074134;28;20258;-77
2021/01/10 04:52:45;;;;;;;40.92;20.50;;;;;;;;;;5093645;28;20180;-77
2021/01/10 04:55:12;;;;;;;36.72;18.38;;;;;;;;;;5091788;28;20237;-76
2021/01/10 04:57:41;;;;;;;37.55;20.90;;;;;;;;;;5082398;28;20171;-75
2021/01/10 05:00:10;;;;;;;34.35;18.75;;;;;;;;;;5093404;28;20202;-77
2021/01/10 05:02:48;;;;;;;35.95;19.23;;;;;;;;;;5092475;28;20564;-75
2021/01/10 05:05:14;;;;;;;42.53;20.35;;;;;;;;;;5084777;28;20525;-75
2021/01/10 05:07:44;;;;;;;39.28;21.23;;;;;;;;;;5073360;28;20553;-75
2021/01/10 05:10:10;;;;;;;42.00;20.60;;;;;;;;;;5095659;28;20211;-75
2021/01/10 05:12:36;;;;;;;39.13;20.90;;;;;;;;;;5080821;28;20557;-74
2021/01/10 05:15:02;;;;;;;42.28;21.92;;;;;;;;;;5077016;28;20176;-73
2021/01/10 05:17:28;;;;;;;42.13;21.10;;;;;;;;;;5081167;28;20267;-76
2021/01/10 05:19:54;;;;;;;36.80;19.85;;;;;;;;;;5076949;28;20215;-75
2021/01/10 05:22:21;;;;;;;41.53;20.75;;;;;;;;;;5080956;28;20199;-78
2021/01/10 05:24:48;;;;;;;40.60;20.13;;;;;;;;;;5084536;28;20237;-75
2021/01/10 05:27:14;;;;;;;35.28;18.80;;;;;;;;;;5073894;28;20567;-74
2021/01/10 05:29:44;;;;;;;39.80;19.65;;;;;;;;;;5088851;28;20644;-75
2021/01/10 05:32:11;;;;;;;38.22;20.05;;;;;;;;;;5079321;28;20241;-77
2021/01/10 05:34:37;;;;;;;37.03;18.98;;;;;;;;;;5075795;28;20180;-74
2021/01/10 05:37:16;;;;;;;39.83;19.95;;;;;;;;;;5073191;28;20279;-75
2021/01/10 05:39:45;;;;;;;34.45;17.63;;;;;;;;;;5073092;28;20207;-76
2021/01/10 05:42:14;;;;;;;34.40;17.08;;;;;;;;;;5091047;28;20219;-75
2021/01/10 05:44:40;;;;;;;30.67;15.30;;;;;;;;;;5096302;28;20171;-75
2021/01/10 05:47:07;;;;;;;30.92;16.05;;;;;;;;;;5094886;28;20187;-73
2021/01/10 05:49:33;;;;;;;26.48;14.27;;;;;;;;;;5087829;28;20197;-75
2021/01/10 05:52:10;;;;;;;31.20;15.35;;;;;;;;;;5086857;28;20203;-77
2021/01/10 05:54:37;;;;;;;32.05;16.77;;;;;;;;;;5076468;28;20549;-76
2021/01/10 05:57:04;;;;;;;34.88;18.00;;;;;;;;;;5087906;28;20176;-75
2021/01/10 05:59:32;;;;;;;36.83;18.38;;;;;;;;;;5076706;28;20203;-76
2021/01/10 06:01:58;;;;;;;36.42;18.75;;;;;;;;;;5093080;28;20668;-74
2021/01/10 06:04:25;;;;;;;34.75;18.75;;;;;;;;;;5093050;28;20176;-76
2021/01/10 06:06:51;;;;;;;36.33;19.08;;;;;;;;;;5078528;28;20195;-75
2021/01/10 06:09:17;;;;;;;43.85;21.13;;;;;;;;;;5085031;28;20282;-76
2021/01/10 06:11:43;;;;;;;39.25;20.27;;;;;;;;;;5096466;28;20541;-76
2021/01/10 06:14:11;;;;;;;37.05;20.40;;;;;;;;;;5096337;28;20578;-76
2021/01/10 06:16:38;;;;;;;38.28;21.77;;;;;;;;;;5094764;28;20548;-75
2021/01/10 06:19:05;;;;;;;35.95;19.60;;;;;;;;;;5092557;28;20312;-74
2021/01/10 06:21:32;;;;;;;39.55;22.05;;;;;;;;;;5079338;28;20220;-76
2021/01/10 06:23:59;;;;;;;37.20;20.65;;;;;;;;;;5077780;28;20180;-75
2021/01/10 06:26:26;;;;;;;41.05;20.48;;;;;;;;;;5089918;28;20183;-77
2021/01/10 06:28:54;;;;;;;34.65;19.55;;;;;;;;;;5097853;28;20260;-75
2021/01/10 06:31:22;;;;;;;29.48;17.40;;;;;;;;;;5082838;28;20564;-79
2021/01/10 06:33:50;;;;;;;33.50;18.38;;;;;;;;;;5095969;28;20183;-77
2021/01/10 06:36:19;;;;;;;38.05;19.17;;;;;;;;;;5077332;28;20253;-75
2021/01/10 06:38:51;;;;;;;37.38;21.17;;;;;;;;;;5084163;28;20206;-73
2021/01/10 06:41:17;;;;;;;35.85;20.02;;;;;;;;;;5083382;28;20275;-75
2021/01/10 06:43:44;;;;;;;38.50;20.40;;;;;;;;;;5091491;28;20600;-74
2021/01/10 06:46:11;;;;;;;37.58;19.23;;;;;;;;;;5077339;28;20407;-74
2021/01/10 06:48:37;;;;;;;33.80;19.23;;;;;;;;;;5084560;28;20179;-76
2021/01/10 06:51:03;;;;;;;36.78;19.52;;;;;;;;;;5097091;28;20199;-75
2021/01/10 06:53:30;;;;;;;41.45;19.27;;;;;;;;;;5096511;28;20176;-76
2021/01/10 06:55:56;;;;;;;35.83;19.35;;;;;;;;;;5091410;28;20174;-75
2021/01/10 06:58:22;;;;;;;34.17;19.13;;;;;;;;;;5081501;28;20177;-74
2021/01/10 07:00:55;;;;;;;40.28;19.60;;;;;;;;;;5081127;28;20191;-76
2021/01/10 07:03:22;;;;;;;35.38;19.83;;;;;;;;;;5080504;28;20176;-77
2021/01/10 07:06:06;;;;;;;33.55;18.50;;;;;;;;;;5080070;28;20179;-75
2021/01/10 07:08:33;;;;;;;32.33;17.67;;;;;;;;;;5097003;28;20167;-74
2021/01/10 07:11:17;;;;;;;32.80;18.13;;;;;;;;;;5100236;28;20191;-76
2021/01/10 07:13:43;;;;;;;37.08;18.92;;;;;;;;;;5092881;28;20195;-75
2021/01/10 07:16:19;;;;;;;33.33;18.60;;;;;;;;;;5082207;28;20183;-75
2021/01/10 07:18:52;;;;;;;33.95;18.40;;;;;;;;;;5095870;28;20194;-73
2021/01/10 07:21:33;;;;;;;35.28;18.83;;;;;;;;;;5091856;28;20207;-74
2021/01/10 07:24:20;;;;;;;31.65;17.85;;;;;;;;;;5082693;28;20184;-76
2021/01/10 07:26:50;;;;;;;34.83;18.17;;;;;;;;;;5084568;28;20176;-75
2021/01/10 07:29:32;;;;;;;31.77;17.52;;;;;;;;;;5095539;28;20179;-76
2021/01/10 07:31:58;;;;;;;34.10;18.20;;;;;;;;;;5080628;28;20550;-76
2021/01/10 07:34:24;;;;;;;34.38;17.30;;;;;;;;;;5090800;28;20577;-74
2021/01/10 07:36:54;;;;;;;32.20;18.27;;;;;;;;;;5083523;28;20199;-74
2021/01/10 07:39:22;;;;;;;29.55;17.52;;;;;;;;;;5093827;28;20222;-73
2021/01/10 07:41:48;;;;;;;31.40;17.10;;;;;;;;;;5082804;28;20556;-76
2021/01/10 07:44:17;;;;;;;27.67;16.25;;;;;;;;;;5086078;28;20184;-74
2021/01/10 07:46:57;;;;;;;31.00;16.00;;;;;;;;;;5082415;28;20263;-75
2021/01/10 07:49:33;;;;;;;31.08;16.45;;;;;;;;;;5074505;28;20233;-76
2021/01/10 07:52:00;;;;;;;25.58;15.38;;;;;;;;;;5076370;28;20678;-75
2021/01/10 07:54:45;;;;;;;27.92;15.63;;;;;;;;;;5076951;28;20187;-76
2021/01/10 07:57:27;;;;;;;24.02;14.00;;;;;;;;;;5087071;28;20258;-75
2021/01/10 08:00:08;;;;;;;22.00;13.18;;;;;;;;;;5094023;28;20692;-75
2021/01/10 08:02:53;;;;;;;24.10;13.95;;;;;;;;;;5094669;28;20199;-75
2021/01/10 08:05:39;;;;;;;22.02;12.63;;;;;;;;;;5083455;28;20176;-77
2021/01/10 08:08:05;;;;;;;24.20;13.40;;;;;;;;;;5087486;28;20195;-75
2021/01/10 08:10:51;;;;;;;22.63;13.77;;;;;;;;;;5093786;28;20179;-76
2021/01/10 08:13:33;;;;;;;23.17;13.57;;;;;;;;;;5090650;28;20178;-76
2021/01/10 08:15:59;;;;;;;21.42;12.35;;;;;;;;;;5087725;28;20176;-76
2021/01/10 08:18:27;;;;;;;22.10;13.50;;;;;;;;;;5081062;28;20174;-76
2021/01/10 08:20:54;;;;;;;19.92;12.43;;;;;;;;;;5094306;28;20195;-79
2021/01/10 08:23:20;;;;;;;19.23;11.80;;;;;;;;;;5076776;28;20186;-75
2021/01/10 08:25:47;;;;;;;22.30;12.70;;;;;;;;;;5080863;28;20591;-76
2021/01/10 08:28:19;;;;;;;19.60;11.85;;;;;;;;;;5091451;28;20175;-73
2021/01/10 08:30:45;;;;;;;21.77;13.18;;;;;;;;;;5088427;28;20244;-74
2021/01/10 08:33:18;;;;;;;22.30;13.30;;;;;;;;;;5094349;28;20298;-75
2021/01/10 08:35:44;;;;;;;19.23;12.35;;;;;;;;;;5093855;28;20633;-77
2021/01/10 08:38:10;;;;;;;20.88;12.48;;;;;;;;;;5093912;28;20183;-76
2021/01/10 08:40:36;;;;;;;21.45;13.95;;;;;;;;;;5093993;28;20199;-74
2021/01/10 08:43:03;;;;;;;22.20;13.90;;;;;;;;;;5094041;28;20224;-74
2021/01/10 08:45:29;;;;;;;24.30;13.48;;;;;;;;;;5076297;28;20218;-75
2021/01/10 08:47:56;;;;;;;22.45;12.75;;;;;;;;;;5075300;28;20172;-75
2021/01/10 08:50:22;;;;;;;23.08;13.18;;;;;;;;;;5079894;28;20217;-75
2021/01/10 08:52:52;;;;;;;20.23;12.18;;;;;;;;;;5073929;28;20526;-74
2021/01/10 08:55:18;;;;;;;20.60;12.65;;;;;;;;;;5073900;28;20552;-75
2021/01/10 08:57:44;;;;;;;21.65;13.10;;;;;;;;;;5083142;28;20176;-75
2021/01/10 09:00:11;;;;;;;22.25;13.05;;;;;;;;;;5088906;28;20207;-75
2021/01/10 09:02:36;;;;;;;19.15;13.38;;;;;;;;;;5093311;28;20187;-76
2021/01/10 09:05:03;;;;;;;20.23;12.60;;;;;;;;;;5076331;28;20577;-76
2021/01/10 09:07:30;;;;;;;22.50;13.55;;;;;;;;;;5079618;28;20188;-74
2021/01/10 09:10:06;;;;;;;20.85;13.15;;;;;;;;;;5090704;28;20249;-76
2021/01/10 09:12:40;;;;;;;20.88;12.63;;;;;;;;;;5090582;28;20229;-74
2021/01/10 09:15:09;;;;;;;17.52;12.45;;;;;;;;;;5093099;28;20179;-75
2021/01/10 09:17:36;;;;;;;19.70;12.85;;;;;;;;;;5092036;28;20183;-75
2021/01/10 09:20:11;;;;;;;18.65;12.48;;;;;;;;;;5084575;28;20728;-76
2021/01/10 09:22:38;;;;;;;16.17;11.70;;;;;;;;;;5077554;28;20187;-76
2021/01/10 09:25:14;;;;;;;18.63;12.30;;;;;;;;;;5072667;28;20265;-77
2021/01/10 09:28:00;;;;;;;20.65;13.80;;;;;;;;;;5087805;28;20713;-77
2021/01/10 09:30:30;;;;;;;23.23;14.30;;;;;;;;;;5084139;28;20179;-76
2021/01/10 09:32:56;;;;;;;24.17;14.20;;;;;;;;;;5076702;28;20180;-77
2021/01/10 09:35:22;;;;;;;20.25;13.30;;;;;;;;;;5075253;28;20187;-76
2021/01/10 09:37:48;;;;;;;22.65;13.65;;;;;;;;;;5073361;28;20204;-76
2021/01/10 09:40:17;;;;;;;21.20;13.40;;;;;;;;;;5073917;28;20606;-76
2021/01/10 09:42:47;;;;;;;20.98;13.63;;;;;;;;;;5079810;28;20605;-76
2021/01/10 09:45:14;;;;;;;20.48;13.32;;;;;;;;;;5091477;28;20175;-76
2021/01/10 09:47:41;;;;;;;19.73;12.80;;;;;;;;;;5091018;28;20179;-75
2021/01/10 09:50:24;;;;;;;16.63;10.95;;;;;;;;;;5092503;28;20203;-74
2021/01/10 09:52:52;;;;;;;19.45;12.10;;;;;;;;;;5092163;28;20593;-77
2021/01/10 09:55:27;;;;;;;21.42;13.25;;;;;;;;;;5092173;28;20557;-74
2021/01/10 09:57:55;;;;;;;19.10;12.48;;;;;;;;;;5093081;28;20190;-75
2021/01/10 10:00:22;;;;;;;20.80;12.63;;;;;;;;;;5086829;28;20231;-75
2021/01/10 10:02:48;;;;;;;22.40;14.30;;;;;;;;;;5084522;28;20178;-75
2021/01/10 10:05:14;;;;;;;21.83;13.35;;;;;;;;;;5081572;28;20184;-75
2021/01/10 10:07:41;;;;;;;22.13;13.75;;;;;;;;;;5085406;28;20183;-78
2021/01/10 10:10:24;;;;;;;22.00;13.40;;;;;;;;;;5088294;28;20210;-76
2021/01/10 10:12:51;;;;;;;20.67;13.40;;;;;;;;;;5078228;28;20211;-76
2021/01/10 10:15:18;;;;;;;26.45;14.88;;;;;;;;;;5083991;28;20186;-75
2021/01/10 10:17:44;;;;;;;22.85;14.30;;;;;;;;;;5092034;28;20278;-74
2021/01/10 10:20:11;;;;;;;28.00;13.82;;;;;;;;;;5072567;28;20607;-75
2021/01/10 10:22:37;;;;;;;21.83;14.52;;;;;;;;;;5072708;28;20192;-75
2021/01/10 10:25:05;;;;;;;23.67;13.07;;;;;;;;;;5072157;28;20184;-76
2021/01/10 10:27:31;;;;;;;21.10;14.35;;;;;;;;;;5073365;28;20184;-75
2021/01/10 10:29:57;;;;;;;21.33;13.50;;;;;;;;;;5091524;28;20176;-76
2021/01/10 10:32:24;;;;;;;20.42;12.75;;;;;;;;;;5091593;28;20688;-74
2021/01/10 10:34:51;;;;;;;21.27;12.50;;;;;;;;;;5091030;28;20283;-75
2021/01/10 10:37:17;;;;;;;20.25;13.40;;;;;;;;;;5078044;28;20187;-75
2021/01/10 10:39:43;;;;;;;20.52;13.15;;;;;;;;;;5095598;28;20557;-75
2021/01/10 10:42:11;;;;;;;21.70;14.57;;;;;;;;;;5082484;28;20622;-76
2021/01/10 10:44:38;;;;;;;25.63;15.60;;;;;;;;;;5095778;28;20186;-74
2021/01/10 10:47:04;;;;;;;24.17;14.23;;;;;;;;;;5096137;28;20221;-74
2021/01/10 10:49:30;;;;;;;24.95;15.50;;;;;;;;;;5096107;28;20176;-74
2021/01/10 10:51:57;;;;;;;22.65;14.60;;;;;;;;;;5096127;28;20222;-74
2021/01/10 10:54:23;;;;;;;36.97;14.75;;;;;;;;;;5095668;28;20592;-74
2021/01/10 10:56:50;;;;;;;26.73;14.52;;;;;;;;;;5095674;28;20248;-73
2021/01/10 10:59:16;;;;;;;23.52;14.82;;;;;;;;;;5095836;28;20690;-73
2021/01/10 11:01:43;;;;;;;27.67;15.45;;;;;;;;;;5095497;28;20278;-72
2021/01/10 11:04:10;;;;;;;25.25;14.40;;;;;;;;;;5095430;28;20183;-75
2021/01/10 11:06:36;;;;;;;25.98;14.65;;;;;;;;;;5095323;28;20243;-74
2021/01/10 11:09:03;;;;;;;28.50;16.10;;;;;;;;;;5100695;28;20189;-73
2021/01/10 11:11:40;;;;;;;25.92;14.05;;;;;;;;;;5081711;28;20211;-75
2021/01/10 11:14:06;;;;;;;22.20;13.48;;;;;;;;;;5075004;28;20229;-75
2021/01/10 11:16:36;;;;;;;23.85;14.57;;;;;;;;;;5079744;28;20649;-74
2021/01/10 11:19:03;;;;;;;24.95;13.68;;;;;;;;;;5095492;28;20203;-75
2021/01/10 11:21:29;;;;;;;24.30;14.45;;;;;;;;;;5090011;28;20195;-73
2021/01/10 11:23:55;;;;;;;26.40;15.65;;;;;;;;;;5086888;28;20617;-76
2021/01/10 11:26:22;;;;;;;29.27;15.45;;;;;;;;;;5095701;28;20180;-73
2021/01/10 11:28:48;;;;;;;26.65;14.57;;;;;;;;;;5095723;28;20482;-74
2021/01/10 11:31:14;;;;;;;25.92;14.00;;;;;;;;;;5081182;28;20191;-74
2021/01/10 11:33:40;;;;;;;24.00;16.17;;;;;;;;;;5094955;28;20251;-76
2021/01/10 11:36:07;;;;;;;25.05;16.02;;;;;;;;;;5095192;28;20199;-76
2021/01/10 11:38:34;;;;;;;27.88;15.90;;;;;;;;;;5095116;28;20203;-72
2021/01/10 11:41:04;;;;;;;24.60;15.35;;;;;;;;;;5089029;28;20271;-75
2021/01/10 11:43:30;;;;;;;26.90;16.23;;;;;;;;;;5087183;28;20220;-75
2021/01/10 11:45:56;;;;;;;26.20;15.35;;;;;;;;;;5095103;28;20636;-73
2021/01/10 11:48:22;;;;;;;26.27;16.60;;;;;;;;;;5095022;28;20168;-75
2021/01/10 11:50:48;;;;;;;32.10;17.92;;;;;;;;;;5094744;28;20302;-73
2021/01/10 11:53:15;;;;;;;25.77;16.98;;;;;;;;;;5094703;28;20594;-74
2021/01/10 11:55:41;;;;;;;22.55;14.70;;;;;;;;;;5094180;28;20536;-74
2021/01/10 11:58:07;;;;;;;23.40;14.95;;;;;;;;;;5094768;28;20179;-75
2021/01/10 12:00:33;;;;;;;26.88;16.38;;;;;;;;;;5094583;28;20206;-73
2021/01/10 12:02:59;;;;;;;26.08;15.95;;;;;;;;;;5094549;28;20176;-74
2021/01/10 12:05:25;;;;;;;24.13;15.20;;;;;;;;;;5093852;28;20172;-72
2021/01/10 12:07:51;;;;;;;24.30;15.82;;;;;;;;;;5094249;28;20197;-72
2021/01/10 12:10:17;;;;;;;23.90;15.77;;;;;;;;;;5095941;28;20180;-76
2021/01/10 12:12:43;;;;;;;26.05;16.90;;;;;;;;;;5074505;28;20191;-73
2021/01/10 12:15:09;;;;;;;25.08;17.02;;;;;;;;;;5073552;28;20176;-75
2021/01/10 12:17:35;;;;;;;26.35;16.42;;;;;;;;;;5087257;28;20184;-75
2021/01/10 12:20:01;;;;;;;26.98;16.65;;;;;;;;;;5094598;28;20226;-74
2021/01/10 12:22:27;;;;;;;25.90;16.35;;;;;;;;;;5093949;28;20199;-73
2021/01/10 12:24:53;;;;;;;29.48;16.00;;;;;;;;;;5094004;28;20277;-74
2021/01/10 12:27:19;;;;;;;23.65;15.05;;;;;;;;;;5094301;28;20172;-73
2021/01/10 12:29:45;;;;;;;22.80;13.80;;;;;;;;;;5087177;28;20180;-75
2021/01/10 12:32:11;;;;;;;24.02;14.50;;;;;;;;;;5088275;28;20207;-72
2021/01/10 12:34:37;;;;;;;25.08;16.15;;;;;;;;;;5094605;28;20258;-72
2021/01/10 12:37:03;;;;;;;21.45;14.00;;;;;;;;;;5093945;28;20203;-72
2021/01/10 12:39:29;;;;;;;23.58;15.05;;;;;;;;;;5093859;28;20200;-73
2021/01/10 12:41:55;;;;;;;24.42;15.07;;;;;;;;;;5093750;28;20198;-75
2021/01/10 12:44:21;;;;;;;28.00;14.85;;;;;;;;;;5093664;28;20176;-73
2021/01/10 12:46:47;;;;;;;25.30;14.75;;;;;;;;;;5093809;28;20171;-71
2021/01/10 12:49:13;;;;;;;25.13;14.50;;;;;;;;;;5093949;28;20634;-74
2021/01/10 12:51:39;;;;;;;27.05;15.00;;;;;;;;;;5093468;28;20541;-76
2021/01/10 12:54:06;;;;;;;23.20;15.30;;;;;;;;;;5092473;28;20693;-75
2021/01/10 12:56:32;;;;;;;27.20;16.92;;;;;;;;;;5093639;28;20233;-76
2021/01/10 12:58:58;;;;;;;27.67;15.80;;;;;;;;;;5093549;28;20548;-73
2021/01/10 13:01:24;;;;;;;24.23;15.63;;;;;;;;;;5093184;28;20253;-73
2021/01/10 13:03:50;;;;;;;20.77;14.30;;;;;;;;;;5093245;28;20226;-73
2021/01/10 13:06:22;;;;;;;23.27;15.35;;;;;;;;;;5093240;28;20183;-75
2021/01/10 13:08:48;;;;;;;26.85;15.70;;;;;;;;;;5096697;28;20194;-75
2021/01/10 13:11:21;;;;;;;23.38;14.70;;;;;;;;;;5082527;28;20681;-73
2021/01/10 13:13:48;;;;;;;22.75;14.95;;;;;;;;;;5072722;28;20222;-76
2021/01/10 13:16:14;;;;;;;23.55;15.35;;;;;;;;;;5074861;28;20202;-75
2021/01/10 13:18:40;;;;;;;24.95;15.18;;;;;;;;;;5093404;28;20525;-76
2021/01/10 13:21:09;;;;;;;21.90;15.32;;;;;;;;;;5093173;28;20191;-74
2021/01/10 13:23:35;;;;;;;24.80;14.18;;;;;;;;;;5092953;28;20551;-75
2021/01/10 13:26:01;;;;;;;23.30;14.95;;;;;;;;;;5093042;28;20171;-75
2021/01/10 13:28:27;;;;;;;21.00;14.32;;;;;;;;;;5093153;28;20159;-72
2021/01/10 13:30:53;;;;;;;22.98;14.18;;;;;;;;;;5084638;28;20271;-73
2021/01/10 13:33:19;;;;;;;20.10;14.20;;;;;;;;;;5092211;28;20177;-74
2021/01/10 13:35:45;;;;;;;19.17;14.50;;;;;;;;;;5079723;28;20184;-76
2021/01/10 13:38:11;;;;;;;22.15;14.68;;;;;;;;;;5080719;28;20211;-76
2021/01/10 13:40:37;;;;;;;20.55;13.80;;;;;;;;;;5073189;28;20232;-75
2021/01/10 13:43:03;;;;;;;20.48;13.15;;;;;;;;;;5077070;28;20187;-74
2021/01/10 13:45:30;;;;;;;19.23;14.07;;;;;;;;;;5068567;28;20676;-75
2021/01/10 13:47:56;;;;;;;20.92;13.60;;;;;;;;;;5076618;28;20184;-74
2021/01/10 13:50:22;;;;;;;18.45;13.00;;;;;;;;;;5068927;28;20184;-74
2021/01/10 13:52:48;;;;;;;20.48;12.45;;;;;;;;;;5083484;28;20639;-75
2021/01/10 13:55:14;;;;;;;16.92;12.10;;;;;;;;;;5086185;28;20195;-74
2021/01/10 13:57:40;;;;;;;17.77;11.30;;;;;;;;;;5073448;28;20206;-76
2021/01/10 14:00:11;;;;;;;19.77;12.65;;;;;;;;;;5069098;28;20702;-75
2021/01/10 14:02:38;;;;;;;19.52;12.45;;;;;;;;;;5081354;28;20206;-75
2021/01/10 14:05:04;;;;;;;17.38;11.25;;;;;;;;;;5071163;28;20226;-76
2021/01/10 14:07:30;;;;;;;24.35;13.60;;;;;;;;;;5084147;28;20288;-73
2021/01/10 14:09:57;;;;;;;19.05;12.05;;;;;;;;;;5098853;28;20182;-77
2021/01/10 14:12:23;;;;;;;16.90;12.73;;;;;;;;;;5082953;28;20422;-75
2021/01/10 14:14:49;;;;;;;25.60;13.00;;;;;;;;;;5079902;28;20232;-74
2021/01/10 14:17:15;;;;;;;25.60;12.85;;;;;;;;;;5092791;28;20197;-75
2021/01/10 14:19:41;;;;;;;18.63;11.77;;;;;;;;;;5092672;28;20565;-74